createdAt,value
2023-04-22T00:01:46.975Z,52.16
2023-04-22T00:04:18.450Z,52.01
2023-04-22T00:06:52.072Z,52.22
2023-04-22T00:09:22.923Z,52.39
2023-04-22T00:11:55.029Z,52.24
2023-04-22T00:14:27.762Z,52.38
2023-04-22T00:16:59.104Z,52.48
2023-04-22T00:19:32.072Z,52.44
2023-04-22T00:22:03.031Z,52.38
2023-04-22T00:24:35.968Z,52.23
2023-04-22T00:27:08.872Z,52.38
2023-04-22T00:29:41.149Z,52.52
2023-04-22T00:32:12.061Z,52.58
2023-04-22T00:34:42.604Z,52.75
2023-04-22T00:37:13.193Z,52.90
2023-04-22T00:39:43.853Z,53.01
2023-04-22T00:42:15.666Z,52.87
2023-04-22T00:44:49.305Z,53.22
2023-04-22T00:47:21.361Z,53.10
2023-04-22T00:49:52.350Z,53.03
2023-04-22T00:52:22.908Z,53.21
2023-04-22T00:54:53.835Z,52.95
2023-04-22T00:57:25.019Z,53.12
2023-04-22T00:59:56.311Z,53.26
2023-04-22T01:02:27.012Z,53.44
2023-04-22T01:04:57.661Z,53.75
2023-04-22T01:07:28.689Z,53.87
2023-04-22T01:10:00.780Z,53.78
2023-04-22T01:12:31.505Z,53.75
2023-04-22T01:15:04.665Z,53.48
2023-04-22T01:17:35.000Z,53.40
2023-04-22T01:20:07.321Z,53.37
2023-04-22T01:22:40.440Z,53.76
2023-04-22T01:25:11.909Z,53.37
2023-04-22T01:27:43.702Z,53.87
2023-04-22T01:30:14.605Z,53.45
2023-04-22T01:32:46.457Z,53.45
2023-04-22T01:35:17.159Z,53.83
2023-04-22T01:37:47.965Z,53.69
2023-04-22T01:40:21.702Z,54.03
2023-04-22T01:42:53.298Z,54.28
2023-04-22T01:45:24.006Z,54.11
2023-04-22T01:47:59.281Z,54.03
2023-04-22T01:50:30.407Z,53.94
2023-04-22T01:53:02.849Z,53.76
2023-04-22T01:55:35.434Z,54.06
2023-04-22T01:58:08.053Z,54.38
2023-04-22T02:00:38.833Z,53.82
2023-04-22T02:03:09.418Z,53.77
2023-04-22T02:05:40.588Z,54.06
2023-04-22T02:08:11.181Z,54.02
2023-04-22T02:10:43.487Z,54.02
2023-04-22T02:13:13.916Z,53.79
2023-04-22T02:15:44.717Z,54.05
2023-04-22T02:18:16.888Z,54.65
2023-04-22T02:20:48.073Z,54.62
2023-04-22T02:23:18.816Z,54.53
2023-04-22T02:25:53.660Z,54.70
2023-04-22T02:28:24.225Z,54.36
2023-04-22T02:30:54.881Z,53.83
2023-04-22T02:33:26.006Z,54.15
2023-04-22T02:35:56.638Z,54.45
2023-04-22T02:38:27.304Z,54.68
2023-04-22T02:40:58.002Z,54.41
2023-04-22T02:43:28.953Z,54.76
2023-04-22T02:46:00.942Z,54.75
2023-04-22T02:48:32.239Z,55.42
2023-04-22T02:51:04.359Z,55.95
2023-04-22T02:53:35.158Z,55.73
2023-04-22T02:56:07.322Z,56.37
2023-04-22T02:58:44.169Z,55.67
2023-04-22T03:01:15.095Z,56.28
2023-04-22T03:03:46.664Z,56.38
2023-04-22T03:06:17.944Z,57.43
2023-04-22T03:08:48.534Z,56.82
2023-04-22T03:11:19.398Z,56.96
2023-04-22T03:13:52.849Z,57.01
2023-04-22T03:16:26.819Z,57.15
2023-04-22T03:18:59.332Z,57.12
2023-04-22T03:21:31.982Z,57.40
2023-04-22T03:24:03.116Z,57.23
2023-04-22T03:26:33.847Z,57.68
2023-04-22T03:29:04.387Z,57.66
2023-04-22T03:31:34.985Z,57.40
2023-04-22T03:34:07.036Z,57.70
2023-04-22T03:36:38.361Z,58.15
2023-04-22T03:39:08.904Z,57.90
2023-04-22T03:41:40.118Z,57.82
2023-04-22T03:44:10.786Z,57.70
2023-04-22T03:46:43.500Z,58.12
2023-04-22T03:49:15.820Z,58.43
2023-04-22T03:51:46.308Z,58.30
2023-04-22T03:54:17.003Z,58.44
2023-04-22T03:56:47.939Z,58.41
2023-04-22T03:59:19.290Z,58.29
2023-04-22T04:01:53.508Z,58.24
2023-04-22T04:04:24.833Z,58.68
2023-04-22T04:06:59.208Z,58.77
2023-04-22T04:09:29.946Z,58.71
2023-04-22T04:12:01.269Z,58.77
2023-04-22T04:14:31.811Z,58.81
2023-04-22T04:17:03.767Z,59.08
2023-04-22T04:19:38.045Z,58.97
2023-04-22T04:22:11.091Z,58.83
2023-04-22T04:24:42.090Z,59.10
2023-04-22T04:27:13.886Z,59.04
2023-04-22T04:29:45.074Z,59.01
2023-04-22T04:32:15.628Z,59.10
2023-04-22T04:34:46.105Z,59.00
2023-04-22T04:37:16.842Z,58.90
2023-04-22T04:39:48.514Z,58.98
2023-04-22T04:42:19.983Z,58.98
2023-04-22T04:44:51.500Z,58.99
2023-04-22T04:47:24.405Z,58.96
2023-04-22T04:49:55.046Z,59.17
2023-04-22T04:52:27.409Z,59.05
2023-04-22T04:54:59.635Z,58.87
2023-04-22T04:57:30.180Z,59.01
2023-04-22T05:00:01.513Z,58.87
2023-04-22T05:02:32.318Z,58.32
2023-04-22T05:05:03.269Z,58.30
2023-04-22T05:07:34.923Z,57.89
2023-04-22T05:10:05.877Z,55.92
2023-04-22T05:12:36.407Z,53.07
2023-04-22T05:15:09.238Z,51.11
2023-04-22T05:17:40.487Z,49.15
2023-04-22T05:20:11.635Z,46.71
2023-04-22T05:22:43.256Z,45.89
2023-04-22T05:25:14.919Z,46.10
2023-04-22T05:27:48.201Z,46.84
2023-04-22T05:30:18.008Z,46.97
2023-04-22T05:32:51.173Z,47.22
2023-04-22T05:35:23.455Z,46.20
2023-04-22T05:37:54.031Z,46.87
2023-04-22T05:40:24.663Z,46.67
2023-04-22T05:42:56.614Z,43.79
2023-04-22T05:45:27.129Z,43.74
2023-04-22T05:47:57.714Z,44.31
2023-04-22T05:50:29.285Z,42.50
2023-04-22T05:52:59.837Z,43.65
2023-04-22T05:55:30.507Z,43.84
2023-04-22T05:58:01.173Z,44.15
2023-04-22T06:00:31.786Z,44.73
2023-04-22T06:03:02.274Z,41.77
2023-04-22T06:05:33.647Z,41.15
2023-04-22T06:08:04.366Z,39.42
2023-04-22T06:10:34.748Z,37.92
2023-04-22T06:13:05.744Z,38.68
2023-04-22T06:15:36.311Z,41.88
2023-04-22T06:18:07.078Z,44.22
2023-04-22T06:20:38.287Z,47.08
2023-04-22T06:23:09.200Z,47.33
2023-04-22T06:25:40.098Z,47.43
2023-04-22T06:28:11.199Z,50.34
2023-04-22T06:30:42.153Z,51.10
2023-04-22T06:33:13.786Z,51.96
2023-04-22T06:35:44.454Z,52.20
2023-04-22T06:38:15.077Z,52.20
2023-04-22T06:40:45.658Z,52.48
2023-04-22T06:43:17.825Z,52.75
2023-04-22T06:45:48.360Z,52.58
2023-04-22T06:48:18.992Z,52.38
2023-04-22T06:50:49.388Z,52.49
2023-04-22T06:53:20.018Z,52.28
2023-04-22T06:55:51.496Z,52.29
2023-04-22T06:58:22.780Z,51.88
2023-04-22T07:00:53.254Z,51.89
2023-04-22T07:03:23.977Z,52.06
2023-04-22T07:05:54.999Z,51.57
2023-04-22T07:08:25.513Z,51.73
2023-04-22T07:10:57.808Z,52.01
2023-04-22T07:13:29.495Z,51.79
2023-04-22T07:16:01.298Z,51.42
2023-04-22T07:18:32.119Z,51.53
2023-04-22T07:21:02.784Z,51.02
2023-04-22T07:23:33.128Z,51.09
2023-04-22T07:26:04.075Z,50.53
2023-04-22T07:28:36.456Z,50.83
2023-04-22T07:31:06.912Z,50.06
2023-04-22T07:33:37.357Z,49.95
2023-04-22T07:36:09.635Z,50.18
2023-04-22T07:38:40.260Z,50.38
2023-04-22T07:41:11.049Z,49.74
2023-04-22T07:43:41.682Z,49.43
2023-04-22T07:46:12.488Z,49.14
2023-04-22T07:48:43.505Z,48.94
2023-04-22T07:51:13.950Z,48.78
2023-04-22T07:53:44.462Z,48.66
2023-04-22T07:56:15.357Z,48.22
2023-04-22T07:58:45.890Z,48.03
2023-04-22T08:01:18.729Z,47.92
2023-04-22T08:03:48.743Z,47.26
2023-04-22T08:06:19.769Z,47.09
2023-04-22T08:08:50.291Z,46.83
2023-04-22T08:11:20.986Z,47.02
2023-04-22T08:13:51.823Z,46.41
2023-04-22T08:19:10.233Z,46.29
2023-04-22T08:21:40.765Z,46.12
2023-04-22T08:24:13.286Z,46.22
2023-04-22T08:26:43.813Z,45.55
2023-04-22T08:29:14.473Z,45.06
2023-04-22T08:31:45.172Z,44.88
2023-04-22T08:34:15.965Z,44.74
2023-04-22T08:36:46.573Z,44.94
2023-04-22T08:39:18.308Z,44.94
2023-04-22T08:41:51.373Z,45.24
2023-04-22T08:44:25.153Z,45.19
2023-04-22T08:46:56.681Z,45.11
2023-04-22T08:49:29.839Z,44.60
2023-04-22T08:52:00.327Z,44.15
2023-04-22T08:54:32.578Z,44.07
2023-04-22T08:57:04.806Z,43.54
2023-04-22T08:59:36.857Z,43.41
2023-04-22T09:02:10.525Z,43.04
2023-04-22T09:04:43.372Z,43.24
2023-04-22T09:07:19.970Z,42.97
2023-04-22T09:09:51.030Z,43.38
2023-04-22T09:12:21.560Z,43.18
2023-04-22T09:14:54.518Z,42.62
2023-04-22T09:17:39.140Z,42.74
2023-04-22T09:20:12.238Z,42.56
2023-04-22T09:22:47.743Z,44.02
2023-04-22T09:25:23.951Z,42.66
2023-04-22T09:27:59.751Z,42.87
2023-04-22T09:30:37.366Z,42.28
2023-04-22T09:33:08.780Z,42.36
2023-04-22T09:35:41.937Z,42.35
2023-04-22T09:38:13.756Z,43.30
2023-04-22T09:40:45.344Z,41.83
2023-04-22T09:43:19.252Z,41.65
2023-04-22T09:45:50.236Z,42.11
2023-04-22T09:48:21.100Z,40.50
2023-04-22T09:50:52.825Z,41.20
2023-04-22T09:53:23.724Z,41.47
2023-04-22T09:55:55.912Z,40.89
2023-04-22T09:58:28.074Z,40.99
2023-04-22T10:00:59.578Z,41.36
2023-04-22T10:03:30.813Z,40.06
2023-04-22T10:06:01.416Z,43.99
2023-04-22T10:08:33.379Z,41.88
2023-04-22T10:11:04.303Z,40.67
2023-04-22T10:13:36.405Z,41.48
2023-04-22T10:16:07.649Z,40.37
2023-04-22T10:18:40.597Z,40.12
2023-04-22T10:21:11.342Z,40.10
2023-04-22T10:23:44.958Z,38.75
2023-04-22T10:26:35.555Z,38.24
2023-04-22T10:29:09.380Z,38.24
2023-04-22T10:31:40.204Z,38.27
2023-04-22T10:34:15.621Z,38.57
2023-04-22T10:37:00.349Z,37.61
2023-04-22T10:39:31.159Z,37.89
2023-04-22T10:42:12.773Z,37.07
2023-04-22T10:44:54.688Z,36.45
2023-04-22T10:47:36.632Z,36.64
2023-04-22T10:50:16.578Z,36.26
2023-04-22T10:52:50.690Z,36.47
2023-04-22T10:55:21.755Z,36.68
2023-04-22T10:57:53.461Z,35.58
2023-04-22T11:00:52.520Z,35.31
2023-04-22T11:03:16.491Z,34.68
2023-04-22T11:05:47.418Z,33.79
2023-04-22T11:08:23.715Z,33.85
2023-04-22T11:10:56.054Z,34.22
2023-04-22T11:13:27.128Z,34.21
2023-04-22T11:15:58.953Z,34.49
2023-04-22T11:18:29.688Z,35.48
2023-04-22T11:21:07.441Z,35.32
2023-04-22T11:23:38.103Z,35.74
2023-04-22T11:26:11.158Z,36.09
2023-04-22T11:28:49.602Z,36.23
2023-04-22T11:31:22.032Z,36.42
2023-04-22T11:33:54.315Z,36.24
2023-04-22T11:36:24.852Z,35.72
2023-04-22T11:38:58.512Z,35.92
2023-04-22T11:41:31.281Z,35.68
2023-04-22T11:44:02.261Z,35.95
2023-04-22T11:46:34.849Z,35.44
2023-04-22T11:49:18.642Z,35.41
2023-04-22T11:51:56.790Z,35.40
2023-04-22T11:54:38.832Z,34.99
2023-04-22T11:57:11.916Z,35.04
2023-04-22T11:59:44.334Z,34.66
2023-04-22T12:02:14.884Z,34.32
2023-04-22T12:04:45.759Z,34.10
2023-04-22T12:07:16.796Z,33.80
2023-04-22T12:09:47.773Z,33.65
2023-04-22T12:12:18.826Z,33.71
2023-04-22T12:14:50.945Z,33.42
2023-04-22T12:17:26.162Z,32.62
2023-04-22T12:19:57.190Z,32.34
2023-04-22T12:22:30.375Z,32.30
2023-04-22T12:25:05.695Z,32.80
2023-04-22T12:27:37.072Z,33.04
2023-04-22T12:30:08.615Z,33.29
2023-04-22T12:32:40.786Z,33.55
2023-04-22T12:35:17.328Z,33.50
2023-04-22T12:37:44.666Z,33.09
2023-04-22T12:40:16.621Z,33.02
2023-04-22T12:42:47.507Z,33.03
2023-04-22T12:45:18.871Z,33.06
2023-04-22T12:47:53.676Z,32.34
2023-04-22T12:50:27.336Z,31.89
2023-04-22T12:52:59.183Z,32.25
2023-04-22T12:55:30.553Z,32.74
2023-04-22T12:58:01.157Z,32.44
2023-04-22T13:00:33.439Z,32.00
2023-04-22T13:03:04.764Z,31.66
2023-04-22T13:05:36.776Z,32.05
2023-04-22T13:08:08.178Z,32.25
2023-04-22T13:10:39.056Z,32.14
2023-04-22T13:13:18.236Z,31.38
2023-04-22T13:15:42.916Z,31.18
2023-04-22T13:18:18.907Z,31.40
2023-04-22T13:20:51.213Z,32.02
2023-04-22T13:23:23.358Z,32.35
2023-04-22T13:25:57.703Z,32.41
2023-04-22T13:28:28.997Z,34.20
2023-04-22T13:31:00.044Z,32.77
2023-04-22T13:33:31.734Z,33.14
2023-04-22T13:36:02.420Z,32.52
2023-04-22T13:38:32.981Z,34.01
2023-04-22T13:41:04.266Z,35.45
2023-04-22T13:43:35.270Z,34.06
2023-04-22T13:46:07.673Z,34.47
2023-04-22T13:48:38.342Z,34.43
2023-04-22T13:51:09.742Z,34.71
2023-04-22T13:53:41.210Z,34.70
2023-04-22T13:56:13.611Z,34.59
2023-04-22T13:58:47.310Z,34.63
2023-04-22T14:01:19.327Z,34.70
2023-04-22T14:03:51.946Z,34.62
2023-04-22T14:06:23.224Z,34.94
2023-04-22T14:08:53.911Z,35.39
2023-04-22T14:11:25.626Z,34.63
2023-04-22T14:13:56.090Z,34.19
2023-04-22T14:16:26.751Z,35.03
2023-04-22T14:18:59.757Z,33.97
2023-04-22T14:21:31.296Z,34.85
2023-04-22T14:24:01.985Z,34.17
2023-04-22T14:26:34.373Z,34.78
2023-04-22T14:29:06.354Z,33.96
2023-04-22T14:31:36.923Z,35.80
2023-04-22T14:34:08.475Z,34.57
2023-04-22T14:36:39.893Z,34.89
2023-04-22T14:39:10.439Z,34.07
2023-04-22T14:41:41.980Z,34.18
2023-04-22T14:44:13.835Z,33.21
2023-04-22T14:46:45.666Z,33.51
2023-04-22T14:49:17.284Z,34.59
2023-04-22T14:51:49.049Z,33.62
2023-04-22T14:54:22.909Z,33.50
2023-04-22T14:56:55.612Z,33.88
2023-04-22T14:59:26.259Z,33.90
2023-04-22T15:01:57.197Z,34.43
2023-04-22T15:04:28.528Z,34.33
2023-04-22T15:07:00.202Z,34.32
2023-04-22T15:09:30.937Z,34.07
2023-04-22T15:12:04.377Z,34.21
2023-04-22T15:14:36.161Z,34.65
2023-04-22T15:17:07.688Z,34.16
2023-04-22T15:19:40.141Z,34.64
2023-04-22T15:22:12.703Z,34.37
2023-04-22T15:24:44.067Z,34.40
2023-04-22T15:27:14.990Z,34.36
2023-04-22T15:29:46.487Z,34.68
2023-04-22T15:32:19.753Z,34.96
2023-04-22T15:34:51.511Z,33.89
2023-04-22T15:37:24.498Z,33.94
2023-04-22T15:39:55.137Z,33.88
2023-04-22T15:42:27.605Z,33.81
2023-04-22T15:44:58.059Z,33.85
2023-04-22T15:47:29.909Z,33.93
2023-04-22T15:50:04.017Z,34.01
2023-04-22T15:52:35.159Z,33.91
2023-04-22T15:55:08.156Z,34.07
2023-04-22T15:57:38.634Z,34.20
2023-04-22T16:00:13.849Z,34.11
2023-04-22T16:02:46.856Z,33.99
2023-04-22T16:05:20.525Z,33.96
2023-04-22T16:07:54.094Z,33.99
2023-04-22T16:10:29.539Z,33.75
2023-04-22T16:13:01.033Z,33.91
2023-04-22T16:15:31.585Z,33.77
2023-04-22T16:18:02.598Z,33.64
2023-04-22T16:20:35.137Z,33.57
2023-04-22T16:23:05.645Z,33.51
2023-04-22T16:25:37.888Z,33.51
2023-04-22T16:28:10.351Z,33.45
2023-04-22T16:30:41.182Z,33.50
2023-04-22T16:33:12.561Z,33.36
2023-04-22T16:35:44.445Z,33.59
2023-04-22T16:38:15.087Z,33.66
2023-04-22T16:40:47.383Z,33.93
2023-04-22T16:43:18.783Z,34.10
2023-04-22T16:45:51.211Z,34.17
2023-04-22T16:48:24.278Z,34.34
2023-04-22T16:50:56.052Z,34.54
2023-04-22T16:53:27.468Z,34.30
2023-04-22T16:56:14.128Z,34.29
2023-04-22T16:58:46.573Z,34.43
2023-04-22T17:01:18.425Z,34.63
2023-04-22T17:03:49.292Z,34.76
2023-04-22T17:06:22.881Z,34.86
2023-04-22T17:08:56.889Z,34.69
2023-04-22T17:11:29.462Z,34.96
2023-04-22T17:14:00.658Z,34.86
2023-04-22T17:16:32.729Z,34.80
2023-04-22T17:19:03.421Z,34.97
2023-04-22T17:21:37.634Z,34.96
2023-04-22T17:24:08.737Z,35.42
2023-04-22T17:26:40.976Z,35.59
2023-04-22T17:29:11.527Z,35.88
2023-04-22T17:31:42.073Z,36.15
2023-04-22T17:34:13.775Z,36.01
2023-04-22T17:36:44.321Z,36.40
2023-04-22T17:39:16.772Z,36.61
2023-04-22T17:41:47.297Z,36.47
2023-04-22T17:44:18.577Z,36.74
2023-04-22T17:46:49.055Z,37.07
2023-04-22T17:49:20.194Z,37.23
2023-04-22T17:51:50.958Z,37.72
2023-04-22T17:54:21.786Z,37.98
2023-04-22T17:56:52.246Z,38.31
2023-04-22T17:59:24.257Z,38.73
2023-04-22T18:01:54.770Z,39.02
2023-04-22T18:04:27.110Z,39.10
2023-04-22T18:06:59.145Z,39.61
2023-04-22T18:09:30.597Z,40.09
2023-04-22T18:12:01.739Z,40.50
2023-04-22T18:14:32.287Z,40.41
2023-04-22T18:17:04.566Z,40.21
2023-04-22T18:19:36.393Z,40.44
2023-04-22T18:22:06.974Z,40.50
2023-04-22T18:24:38.592Z,40.43
2023-04-22T18:27:09.634Z,40.56
2023-04-22T18:29:40.592Z,39.91
2023-04-22T18:32:11.749Z,39.97
2023-04-22T18:34:42.788Z,40.04
2023-04-22T18:37:14.319Z,40.03
2023-04-22T18:39:46.622Z,40.13
2023-04-22T18:42:18.594Z,40.03
2023-04-22T18:44:55.035Z,40.77
2023-04-22T18:47:26.462Z,40.79
2023-04-22T18:49:57.979Z,40.95
2023-04-22T18:52:28.587Z,41.01
2023-04-22T18:54:59.662Z,40.94
2023-04-22T18:57:30.750Z,40.62
2023-04-22T19:00:02.153Z,40.78
2023-04-22T19:02:37.289Z,41.23
2023-04-22T19:05:06.876Z,41.55
2023-04-22T19:07:38.431Z,41.45
2023-04-22T19:10:10.572Z,41.32
2023-04-22T19:12:41.961Z,41.58
2023-04-22T19:15:13.435Z,41.15
2023-04-22T19:17:49.122Z,41.35
2023-04-22T19:20:19.887Z,41.68
2023-04-22T19:22:53.669Z,41.86
2023-04-22T19:25:24.549Z,42.23
2023-04-22T19:27:55.063Z,42.36
2023-04-22T19:30:27.800Z,42.42
2023-04-22T19:32:58.570Z,42.61
2023-04-22T19:35:29.285Z,42.58
2023-04-22T19:38:02.471Z,43.06
2023-04-22T19:40:35.616Z,42.86
2023-04-22T19:43:10.317Z,42.74
2023-04-22T19:45:41.166Z,42.86
2023-04-22T19:48:12.192Z,42.93
2023-04-22T19:50:46.146Z,42.87
2023-04-22T19:53:18.525Z,42.93
2023-04-22T19:55:50.981Z,42.77
2023-04-22T19:58:25.371Z,42.77
2023-04-22T20:00:56.843Z,42.93
2023-04-22T20:03:28.130Z,42.99
2023-04-22T20:05:58.873Z,42.77
2023-04-22T20:08:29.839Z,43.06
2023-04-22T20:11:04.181Z,43.18
2023-04-22T20:13:37.269Z,43.12
2023-04-22T20:16:08.708Z,43.02
2023-04-22T20:18:41.283Z,43.11
2023-04-22T20:21:13.691Z,43.27
2023-04-22T20:23:46.106Z,43.17
2023-04-22T20:26:20.162Z,43.49
2023-04-22T20:28:55.284Z,43.64
2023-04-22T20:31:30.683Z,43.86
2023-04-22T20:33:58.279Z,44.11
2023-04-22T20:36:30.776Z,44.05
2023-04-22T20:39:06.709Z,44.12
2023-04-22T20:41:40.448Z,44.12
2023-04-22T20:44:10.943Z,44.09
2023-04-22T20:46:43.830Z,44.18
2023-04-22T20:49:16.584Z,44.27
2023-04-22T20:51:47.314Z,44.24
2023-04-22T20:54:28.441Z,44.30
2023-04-22T20:56:50.664Z,44.52
2023-04-22T20:59:21.235Z,44.55
2023-04-22T21:01:54.866Z,44.52
2023-04-22T21:04:26.637Z,44.49
2023-04-22T21:06:58.367Z,44.43
2023-04-22T21:09:34.320Z,44.65
2023-04-22T21:12:04.619Z,44.55
2023-04-22T21:14:36.700Z,44.68
2023-04-22T21:17:21.729Z,44.83
2023-04-22T21:19:56.221Z,44.79
2023-04-22T21:22:27.436Z,44.79
2023-04-22T21:24:59.324Z,45.04
2023-04-22T21:27:31.448Z,45.07
2023-04-22T21:30:02.893Z,45.17
2023-04-22T21:32:37.058Z,45.23
2023-04-22T21:35:08.443Z,45.31
2023-04-22T21:37:40.301Z,45.41
2023-04-22T21:40:13.788Z,45.47
2023-04-22T21:42:45.498Z,45.35
2023-04-22T21:45:16.384Z,45.41
2023-04-22T21:47:47.835Z,45.53
2023-04-22T21:50:20.892Z,45.66
2023-04-22T21:52:53.594Z,45.75
2023-04-22T21:55:24.230Z,45.84
2023-04-22T21:57:57.558Z,45.94
2023-04-22T22:00:28.201Z,46.09
2023-04-22T22:02:59.053Z,46.03
2023-04-22T22:05:30.125Z,46.21
2023-04-22T22:08:01.249Z,46.21
2023-04-22T22:10:31.914Z,46.33
2023-04-22T22:13:02.571Z,46.36
2023-04-22T22:15:33.050Z,46.58
2023-04-22T22:18:04.923Z,46.58
2023-04-22T22:20:36.559Z,46.57
2023-04-22T22:23:08.528Z,46.63
2023-04-22T22:25:39.074Z,46.70
2023-04-22T22:28:10.838Z,46.70
2023-04-22T22:30:41.430Z,46.70
2023-04-22T22:33:12.119Z,46.83
2023-04-22T22:35:42.794Z,46.85
2023-04-22T22:38:13.400Z,46.89
2023-04-22T22:40:44.092Z,46.89
2023-04-22T22:43:15.014Z,47.20
2023-04-22T22:45:47.916Z,47.32
2023-04-22T22:48:18.718Z,47.20
2023-04-22T22:50:50.006Z,47.14
2023-04-22T22:53:21.660Z,47.33
2023-04-22T22:55:53.789Z,47.30
2023-04-22T22:58:26.499Z,47.30
2023-04-22T23:00:58.235Z,47.58
2023-04-22T23:03:29.009Z,47.85
2023-04-22T23:05:59.918Z,47.88
2023-04-22T23:08:31.420Z,48.13
2023-04-22T23:11:03.246Z,48.22
2023-04-22T23:13:34.764Z,48.38
2023-04-22T23:16:05.492Z,48.44
2023-04-22T23:18:37.957Z,48.68
2023-04-22T23:21:10.152Z,48.80
2023-04-22T23:23:42.118Z,48.99
2023-04-22T23:26:13.316Z,48.99
2023-04-22T23:28:44.118Z,49.24
2023-04-22T23:31:17.315Z,49.35
2023-04-22T23:33:50.855Z,49.56
2023-04-22T23:36:23.463Z,49.60
2023-04-22T23:38:57.778Z,50.05
2023-04-22T23:41:27.335Z,50.20
2023-04-22T23:43:57.951Z,50.08
2023-04-22T23:46:28.788Z,50.26
2023-04-22T23:49:01.459Z,50.44
2023-04-22T23:51:35.741Z,50.59
2023-04-22T23:54:06.634Z,50.45
2023-04-22T23:56:37.752Z,50.60
2023-04-22T23:59:08.559Z,50.89
